sensor_id;sensor_type;location;lat;lon;timestamp;temperature;humidity
22850;DHT22;11591;44.792;10.358;2022-12-29T00:02:05;9.50;99.90
22850;DHT22;11591;44.792;10.358;2022-12-29T00:04:31;9.40;99.90
22850;DHT22;11591;44.792;10.358;2022-12-29T00:06:56;9.20;99.90
22850;DHT22;11591;44.792;10.358;2022-12-29T00:09:22;9.20;99.90
22850;DHT22;11591;44.792;10.358;2022-12-29T00:11:48;9.10;99.90
22850;DHT22;11591;44.792;10.358;2022-12-29T00:14:15;9.10;99.90
22850;DHT22;11591;44.792;10.358;2022-12-29T00:16:59;9.10;99.90
22850;DHT22;11591;44.792;10.358;2022-12-29T00:19:25;9.10;99.90
22850;DHT22;11591;44.792;10.358;2022-12-29T00:22:23;9.10;99.90
22850;DHT22;11591;44.792;10.358;2022-12-29T00:25:09;9.00;99.90
22850;DHT22;11591;44.792;10.358;2022-12-29T00:27:53;8.90;99.90
22850;DHT22;11591;44.792;10.358;2022-12-29T00:30:38;9.00;99.90
22850;DHT22;11591;44.792;10.358;2022-12-29T00:33:28;9.10;99.90
22850;DHT22;11591;44.792;10.358;2022-12-29T00:38:54;9.10;99.90
22850;DHT22;11591;44.792;10.358;2022-12-29T00:41:39;9.20;99.90
22850;DHT22;11591;44.792;10.358;2022-12-29T00:44:24;9.20;99.90
22850;DHT22;11591;44.792;10.358;2022-12-29T00:46:50;9.10;99.90
22850;DHT22;11591;44.792;10.358;2022-12-29T00:49:16;9.00;99.90
22850;DHT22;11591;44.792;10.358;2022-12-29T00:52:05;9.00;99.90
22850;DHT22;11591;44.792;10.358;2022-12-29T00:54:34;9.00;99.90
22850;DHT22;11591;44.792;10.358;2022-12-29T00:57:01;9.00;99.90
22850;DHT22;11591;44.792;10.358;2022-12-29T00:59:27;9.00;99.90
22850;DHT22;11591;44.792;10.358;2022-12-29T01:01:53;9.00;99.90
22850;DHT22;11591;44.792;10.358;2022-12-29T01:04:21;9.00;99.90
22850;DHT22;11591;44.792;10.358;2022-12-29T01:06:48;9.10;99.90
22850;DHT22;11591;44.792;10.358;2022-12-29T01:09:15;9.10;99.90
22850;DHT22;11591;44.792;10.358;2022-12-29T01:12:00;9.10;99.90
22850;DHT22;11591;44.792;10.358;2022-12-29T01:14:26;9.20;99.90
22850;DHT22;11591;44.792;10.358;2022-12-29T01:16:52;9.30;99.90
22850;DHT22;11591;44.792;10.358;2022-12-29T01:19:18;9.20;99.90
22850;DHT22;11591;44.792;10.358;2022-12-29T01:21:45;9.10;99.90
22850;DHT22;11591;44.792;10.358;2022-12-29T01:24:12;9.00;99.90
22850;DHT22;11591;44.792;10.358;2022-12-29T01:26:38;9.00;99.90
22850;DHT22;11591;44.792;10.358;2022-12-29T01:29:03;9.00;99.90
22850;DHT22;11591;44.792;10.358;2022-12-29T01:31:29;9.00;99.90
22850;DHT22;11591;44.792;10.358;2022-12-29T01:33:55;9.00;99.90
22850;DHT22;11591;44.792;10.358;2022-12-29T01:36:21;9.10;99.90
22850;DHT22;11591;44.792;10.358;2022-12-29T01:38:47;9.10;99.90
22850;DHT22;11591;44.792;10.358;2022-12-29T01:41:14;9.20;99.90
22850;DHT22;11591;44.792;10.358;2022-12-29T01:43:47;9.30;99.90
22850;DHT22;11591;44.792;10.358;2022-12-29T01:46:15;9.30;99.90
22850;DHT22;11591;44.792;10.358;2022-12-29T01:48:47;9.30;99.90
22850;DHT22;11591;44.792;10.358;2022-12-29T01:51:14;9.30;99.90
22850;DHT22;11591;44.792;10.358;2022-12-29T01:53:42;9.40;99.90
22850;DHT22;11591;44.792;10.358;2022-12-29T01:56:11;9.40;99.90
22850;DHT22;11591;44.792;10.358;2022-12-29T01:58:40;9.40;99.90
22850;DHT22;11591;44.792;10.358;2022-12-29T02:01:07;9.30;99.90
22850;DHT22;11591;44.792;10.358;2022-12-29T02:03:36;9.30;99.90
22850;DHT22;11591;44.792;10.358;2022-12-29T02:08:33;9.20;99.90
22850;DHT22;11591;44.792;10.358;2022-12-29T02:11:00;9.10;99.90
22850;DHT22;11591;44.792;10.358;2022-12-29T02:13:27;9.10;99.90
22850;DHT22;11591;44.792;10.358;2022-12-29T02:37:58;9.00;99.90
22850;DHT22;11591;44.792;10.358;2022-12-29T02:45:58;8.90;99.90
22850;DHT22;11591;44.792;10.358;2022-12-29T02:48:52;9.00;99.90
22850;DHT22;11591;44.792;10.358;2022-12-29T02:51:25;9.00;99.90
22850;DHT22;11591;44.792;10.358;2022-12-29T02:53:53;8.90;99.90
22850;DHT22;11591;44.792;10.358;2022-12-29T02:56:38;9.00;99.90
22850;DHT22;11591;44.792;10.358;2022-12-29T02:59:05;9.10;99.90
22850;DHT22;11591;44.792;10.358;2022-12-29T03:02:27;9.20;99.90
22850;DHT22;11591;44.792;10.358;2022-12-29T03:07:46;9.20;99.90
22850;DHT22;11591;44.792;10.358;2022-12-29T03:15:51;9.20;99.90
22850;DHT22;11591;44.792;10.358;2022-12-29T03:18:37;9.20;99.90
22850;DHT22;11591;44.792;10.358;2022-12-29T03:21:26;9.10;99.90
22850;DHT22;11591;44.792;10.358;2022-12-29T03:24:19;9.00;99.90
22850;DHT22;11591;44.792;10.358;2022-12-29T03:26:47;8.90;99.90
22850;DHT22;11591;44.792;10.358;2022-12-29T03:29:17;9.00;99.90
22850;DHT22;11591;44.792;10.358;2022-12-29T03:31:45;9.00;99.90
22850;DHT22;11591;44.792;10.358;2022-12-29T03:34:13;9.10;99.90
22850;DHT22;11591;44.792;10.358;2022-12-29T03:36:50;9.20;99.90
22850;DHT22;11591;44.792;10.358;2022-12-29T03:39:18;9.10;99.90
22850;DHT22;11591;44.792;10.358;2022-12-29T03:41:50;9.10;99.90
22850;DHT22;11591;44.792;10.358;2022-12-29T03:44:18;9.00;99.90
22850;DHT22;11591;44.792;10.358;2022-12-29T03:46:45;9.00;99.90
22850;DHT22;11591;44.792;10.358;2022-12-29T03:49:11;9.00;99.90
22850;DHT22;11591;44.792;10.358;2022-12-29T03:51:38;8.90;99.90
22850;DHT22;11591;44.792;10.358;2022-12-29T03:54:05;8.90;99.90
22850;DHT22;11591;44.792;10.358;2022-12-29T03:56:31;8.90;99.90
22850;DHT22;11591;44.792;10.358;2022-12-29T03:58:57;8.90;99.90
22850;DHT22;11591;44.792;10.358;2022-12-29T04:01:29;8.90;99.90
22850;DHT22;11591;44.792;10.358;2022-12-29T04:03:55;8.90;99.90
22850;DHT22;11591;44.792;10.358;2022-12-29T04:06:21;8.90;99.90
22850;DHT22;11591;44.792;10.358;2022-12-29T04:08:52;9.00;99.90
22850;DHT22;11591;44.792;10.358;2022-12-29T04:11:20;9.10;99.90
22850;DHT22;11591;44.792;10.358;2022-12-29T04:13:46;9.10;99.90
22850;DHT22;11591;44.792;10.358;2022-12-29T04:16:16;9.10;99.90
22850;DHT22;11591;44.792;10.358;2022-12-29T04:18:42;9.10;99.90
22850;DHT22;11591;44.792;10.358;2022-12-29T04:21:07;9.10;99.90
22850;DHT22;11591;44.792;10.358;2022-12-29T04:23:38;9.10;99.90
22850;DHT22;11591;44.792;10.358;2022-12-29T04:26:07;9.10;99.90
22850;DHT22;11591;44.792;10.358;2022-12-29T04:28:39;9.10;99.90
22850;DHT22;11591;44.792;10.358;2022-12-29T04:31:16;9.10;99.90
22850;DHT22;11591;44.792;10.358;2022-12-29T04:33:44;9.10;99.90
22850;DHT22;11591;44.792;10.358;2022-12-29T04:36:10;9.10;99.90
22850;DHT22;11591;44.792;10.358;2022-12-29T04:38:37;9.20;99.90
22850;DHT22;11591;44.792;10.358;2022-12-29T04:41:04;9.20;99.90
22850;DHT22;11591;44.792;10.358;2022-12-29T04:43:31;9.20;99.90
22850;DHT22;11591;44.792;10.358;2022-12-29T04:46:19;9.10;99.90
22850;DHT22;11591;44.792;10.358;2022-12-29T04:49:00;9.10;99.90
22850;DHT22;11591;44.792;10.358;2022-12-29T04:51:47;9.20;99.90
22850;DHT22;11591;44.792;10.358;2022-12-29T04:54:15;9.10;99.90
22850;DHT22;11591;44.792;10.358;2022-12-29T04:56:43;9.10;99.90
22850;DHT22;11591;44.792;10.358;2022-12-29T04:59:11;9.10;99.90
22850;DHT22;11591;44.792;10.358;2022-12-29T05:01:37;9.00;99.90
22850;DHT22;11591;44.792;10.358;2022-12-29T05:04:04;9.10;99.90
22850;DHT22;11591;44.792;10.358;2022-12-29T05:06:29;9.20;99.90
22850;DHT22;11591;44.792;10.358;2022-12-29T05:08:55;9.20;99.90
22850;DHT22;11591;44.792;10.358;2022-12-29T05:11:21;9.20;99.90
22850;DHT22;11591;44.792;10.358;2022-12-29T05:13:49;9.20;99.90
22850;DHT22;11591;44.792;10.358;2022-12-29T05:16:16;9.10;99.90
22850;DHT22;11591;44.792;10.358;2022-12-29T05:18:42;9.10;99.90
22850;DHT22;11591;44.792;10.358;2022-12-29T05:21:08;9.10;99.90
22850;DHT22;11591;44.792;10.358;2022-12-29T05:23:34;9.00;99.90
22850;DHT22;11591;44.792;10.358;2022-12-29T05:26:04;9.00;99.90
22850;DHT22;11591;44.792;10.358;2022-12-29T05:28:44;9.00;99.90
22850;DHT22;11591;44.792;10.358;2022-12-29T05:31:17;9.00;99.90
22850;DHT22;11591;44.792;10.358;2022-12-29T05:33:43;8.90;99.90
22850;DHT22;11591;44.792;10.358;2022-12-29T05:36:09;8.90;99.90
22850;DHT22;11591;44.792;10.358;2022-12-29T05:38:39;9.00;99.90
22850;DHT22;11591;44.792;10.358;2022-12-29T05:41:05;8.90;99.90
22850;DHT22;11591;44.792;10.358;2022-12-29T05:43:57;8.90;99.90
22850;DHT22;11591;44.792;10.358;2022-12-29T05:46:44;8.90;99.90
22850;DHT22;11591;44.792;10.358;2022-12-29T05:49:16;8.90;99.90
22850;DHT22;11591;44.792;10.358;2022-12-29T05:52:07;8.90;99.90
22850;DHT22;11591;44.792;10.358;2022-12-29T05:54:33;8.80;99.90
22850;DHT22;11591;44.792;10.358;2022-12-29T05:57:00;8.80;99.90
22850;DHT22;11591;44.792;10.358;2022-12-29T05:59:27;8.80;99.90
22850;DHT22;11591;44.792;10.358;2022-12-29T06:01:53;8.80;99.90
22850;DHT22;11591;44.792;10.358;2022-12-29T06:04:19;8.80;99.90
22850;DHT22;11591;44.792;10.358;2022-12-29T06:06:46;8.80;99.90
22850;DHT22;11591;44.792;10.358;2022-12-29T06:09:20;8.90;99.90
22850;DHT22;11591;44.792;10.358;2022-12-29T06:11:46;8.90;99.90
22850;DHT22;11591;44.792;10.358;2022-12-29T06:14:12;8.90;99.90
22850;DHT22;11591;44.792;10.358;2022-12-29T06:16:37;8.80;99.90
22850;DHT22;11591;44.792;10.358;2022-12-29T06:19:08;8.80;99.90
22850;DHT22;11591;44.792;10.358;2022-12-29T06:21:35;8.90;99.90
22850;DHT22;11591;44.792;10.358;2022-12-29T06:24:01;9.00;99.90
22850;DHT22;11591;44.792;10.358;2022-12-29T06:26:27;9.00;99.90
22850;DHT22;11591;44.792;10.358;2022-12-29T06:28:52;9.00;99.90
22850;DHT22;11591;44.792;10.358;2022-12-29T06:31:18;9.00;99.90
22850;DHT22;11591;44.792;10.358;2022-12-29T06:33:44;9.00;99.90
22850;DHT22;11591;44.792;10.358;2022-12-29T06:36:10;9.00;99.90
22850;DHT22;11591;44.792;10.358;2022-12-29T06:38:36;9.00;99.90
22850;DHT22;11591;44.792;10.358;2022-12-29T06:41:02;9.00;99.90
22850;DHT22;11591;44.792;10.358;2022-12-29T06:43:56;9.00;99.90
22850;DHT22;11591;44.792;10.358;2022-12-29T06:46:40;8.90;99.90
22850;DHT22;11591;44.792;10.358;2022-12-29T06:49:06;8.90;99.90
22850;DHT22;11591;44.792;10.358;2022-12-29T06:51:32;8.80;99.90
22850;DHT22;11591;44.792;10.358;2022-12-29T06:53:57;8.80;99.90
22850;DHT22;11591;44.792;10.358;2022-12-29T06:56:23;8.90;99.90
22850;DHT22;11591;44.792;10.358;2022-12-29T06:58:49;9.00;99.90
22850;DHT22;11591;44.792;10.358;2022-12-29T07:01:15;9.00;99.90
22850;DHT22;11591;44.792;10.358;2022-12-29T07:03:43;9.00;99.90
22850;DHT22;11591;44.792;10.358;2022-12-29T07:06:09;9.00;99.90
22850;DHT22;11591;44.792;10.358;2022-12-29T07:08:35;9.10;99.90
22850;DHT22;11591;44.792;10.358;2022-12-29T07:11:01;9.10;99.90
22850;DHT22;11591;44.792;10.358;2022-12-29T07:13:26;9.20;99.90
22850;DHT22;11591;44.792;10.358;2022-12-29T07:15:52;9.20;99.90
22850;DHT22;11591;44.792;10.358;2022-12-29T07:18:18;9.20;99.90
22850;DHT22;11591;44.792;10.358;2022-12-29T07:20:44;9.20;99.90
22850;DHT22;11591;44.792;10.358;2022-12-29T07:23:10;9.20;99.90
22850;DHT22;11591;44.792;10.358;2022-12-29T07:25:36;9.20;99.90
22850;DHT22;11591;44.792;10.358;2022-12-29T07:28:03;9.30;99.90
22850;DHT22;11591;44.792;10.358;2022-12-29T07:30:29;9.40;99.90
22850;DHT22;11591;44.792;10.358;2022-12-29T07:32:55;9.40;99.90
22850;DHT22;11591;44.792;10.358;2022-12-29T07:35:21;9.40;99.90
22850;DHT22;11591;44.792;10.358;2022-12-29T07:37:47;9.40;99.90
22850;DHT22;11591;44.792;10.358;2022-12-29T07:40:13;9.40;99.90
22850;DHT22;11591;44.792;10.358;2022-12-29T07:42:38;9.50;99.90
22850;DHT22;11591;44.792;10.358;2022-12-29T07:45:08;9.50;99.90
22850;DHT22;11591;44.792;10.358;2022-12-29T07:47:53;9.50;99.90
22850;DHT22;11591;44.792;10.358;2022-12-29T07:50:18;9.40;99.90
22850;DHT22;11591;44.792;10.358;2022-12-29T07:52:44;9.40;99.90
22850;DHT22;11591;44.792;10.358;2022-12-29T07:55:12;9.40;99.90
22850;DHT22;11591;44.792;10.358;2022-12-29T07:57:38;9.50;99.90
22850;DHT22;11591;44.792;10.358;2022-12-29T08:00:04;9.50;99.90
22850;DHT22;11591;44.792;10.358;2022-12-29T08:02:37;9.50;99.90
22850;DHT22;11591;44.792;10.358;2022-12-29T08:05:03;9.50;99.90
22850;DHT22;11591;44.792;10.358;2022-12-29T08:07:29;9.60;99.90
22850;DHT22;11591;44.792;10.358;2022-12-29T08:09:55;9.60;99.90
22850;DHT22;11591;44.792;10.358;2022-12-29T08:12:21;9.70;99.90
22850;DHT22;11591;44.792;10.358;2022-12-29T08:14:46;9.60;99.90
22850;DHT22;11591;44.792;10.358;2022-12-29T08:17:12;9.60;99.90
22850;DHT22;11591;44.792;10.358;2022-12-29T08:19:38;9.60;99.90
22850;DHT22;11591;44.792;10.358;2022-12-29T08:22:04;9.60;99.90
22850;DHT22;11591;44.792;10.358;2022-12-29T08:24:29;9.70;99.90
22850;DHT22;11591;44.792;10.358;2022-12-29T08:26:55;9.70;99.90
22850;DHT22;11591;44.792;10.358;2022-12-29T08:29:21;9.70;99.90
22850;DHT22;11591;44.792;10.358;2022-12-29T08:31:47;9.70;99.90
22850;DHT22;11591;44.792;10.358;2022-12-29T08:34:13;9.80;99.90
22850;DHT22;11591;44.792;10.358;2022-12-29T08:36:39;9.80;99.90
22850;DHT22;11591;44.792;10.358;2022-12-29T08:39:05;9.80;99.90
22850;DHT22;11591;44.792;10.358;2022-12-29T08:41:31;9.80;99.90
22850;DHT22;11591;44.792;10.358;2022-12-29T08:43:56;9.80;99.90
22850;DHT22;11591;44.792;10.358;2022-12-29T08:46:22;9.80;99.90
22850;DHT22;11591;44.792;10.358;2022-12-29T08:48:48;9.80;99.90
22850;DHT22;11591;44.792;10.358;2022-12-29T08:51:14;9.70;99.90
22850;DHT22;11591;44.792;10.358;2022-12-29T08:53:40;9.70;99.90
22850;DHT22;11591;44.792;10.358;2022-12-29T08:56:06;9.60;99.90
22850;DHT22;11591;44.792;10.358;2022-12-29T08:58:42;9.60;99.90
22850;DHT22;11591;44.792;10.358;2022-12-29T09:01:09;9.60;99.90
22850;DHT22;11591;44.792;10.358;2022-12-29T09:03:35;9.50;99.90
22850;DHT22;11591;44.792;10.358;2022-12-29T09:06:01;9.50;99.90
22850;DHT22;11591;44.792;10.358;2022-12-29T09:08:26;9.60;99.90
22850;DHT22;11591;44.792;10.358;2022-12-29T09:10:52;9.50;99.90
22850;DHT22;11591;44.792;10.358;2022-12-29T09:13:18;9.60;99.90
22850;DHT22;11591;44.792;10.358;2022-12-29T09:15:44;9.60;99.90
22850;DHT22;11591;44.792;10.358;2022-12-29T09:18:10;9.50;99.90
22850;DHT22;11591;44.792;10.358;2022-12-29T09:20:36;9.50;99.90
22850;DHT22;11591;44.792;10.358;2022-12-29T09:23:03;9.50;99.90
22850;DHT22;11591;44.792;10.358;2022-12-29T09:25:31;9.50;99.90
22850;DHT22;11591;44.792;10.358;2022-12-29T09:27:57;9.50;99.90
22850;DHT22;11591;44.792;10.358;2022-12-29T09:30:23;9.50;99.90
22850;DHT22;11591;44.792;10.358;2022-12-29T09:32:49;9.40;99.90
22850;DHT22;11591;44.792;10.358;2022-12-29T09:35:20;9.40;99.90
22850;DHT22;11591;44.792;10.358;2022-12-29T09:37:48;9.40;99.90
22850;DHT22;11591;44.792;10.358;2022-12-29T09:40:31;9.50;99.90
22850;DHT22;11591;44.792;10.358;2022-12-29T09:46:03;9.60;99.90
22850;DHT22;11591;44.792;10.358;2022-12-29T09:48:36;9.60;99.90
22850;DHT22;11591;44.792;10.358;2022-12-29T09:51:08;9.70;99.90
22850;DHT22;11591;44.792;10.358;2022-12-29T09:53:39;9.80;99.90
22850;DHT22;11591;44.792;10.358;2022-12-29T09:56:13;9.80;99.90
22850;DHT22;11591;44.792;10.358;2022-12-29T09:59:02;9.70;99.90
22850;DHT22;11591;44.792;10.358;2022-12-29T10:04:02;9.70;99.90
22850;DHT22;11591;44.792;10.358;2022-12-29T10:06:54;9.70;99.90
22850;DHT22;11591;44.792;10.358;2022-12-29T10:15:10;9.90;99.90
22850;DHT22;11591;44.792;10.358;2022-12-29T10:25:43;10.10;99.90
22850;DHT22;11591;44.792;10.358;2022-12-29T10:28:34;10.20;99.90
22850;DHT22;11591;44.792;10.358;2022-12-29T10:31:02;10.20;99.90
22850;DHT22;11591;44.792;10.358;2022-12-29T10:33:36;10.30;99.90
22850;DHT22;11591;44.792;10.358;2022-12-29T10:36:16;10.30;99.90
22850;DHT22;11591;44.792;10.358;2022-12-29T10:38:50;10.30;99.90
22850;DHT22;11591;44.792;10.358;2022-12-29T10:41:28;10.40;99.90
22850;DHT22;11591;44.792;10.358;2022-12-29T10:43:57;10.30;99.90
22850;DHT22;11591;44.792;10.358;2022-12-29T10:46:30;10.30;99.90
22850;DHT22;11591;44.792;10.358;2022-12-29T10:48:58;10.30;99.90
22850;DHT22;11591;44.792;10.358;2022-12-29T10:51:32;10.20;99.90
22850;DHT22;11591;44.792;10.358;2022-12-29T10:54:04;10.20;99.90
22850;DHT22;11591;44.792;10.358;2022-12-29T10:56:40;10.20;99.90
22850;DHT22;11591;44.792;10.358;2022-12-29T10:59:15;10.20;99.90
22850;DHT22;11591;44.792;10.358;2022-12-29T11:07:06;10.10;99.90
22850;DHT22;11591;44.792;10.358;2022-12-29T11:09:36;10.00;99.90
22850;DHT22;11591;44.792;10.358;2022-12-29T11:12:27;10.00;99.90
22850;DHT22;11591;44.792;10.358;2022-12-29T11:15:13;9.90;99.90
22850;DHT22;11591;44.792;10.358;2022-12-29T11:17:48;9.90;99.90
22850;DHT22;11591;44.792;10.358;2022-12-29T11:20:37;9.90;99.90
22850;DHT22;11591;44.792;10.358;2022-12-29T11:23:24;10.00;99.90
22850;DHT22;11591;44.792;10.358;2022-12-29T11:26:13;10.00;99.90
22850;DHT22;11591;44.792;10.358;2022-12-29T11:28:41;10.00;99.90
22850;DHT22;11591;44.792;10.358;2022-12-29T11:31:08;9.90;99.90
22850;DHT22;11591;44.792;10.358;2022-12-29T11:33:36;10.00;99.90
22850;DHT22;11591;44.792;10.358;2022-12-29T11:36:06;10.00;99.90
22850;DHT22;11591;44.792;10.358;2022-12-29T11:38:36;10.00;99.90
22850;DHT22;11591;44.792;10.358;2022-12-29T11:41:04;10.00;99.90
22850;DHT22;11591;44.792;10.358;2022-12-29T11:43:37;10.10;99.90
22850;DHT22;11591;44.792;10.358;2022-12-29T11:46:04;10.10;99.90
22850;DHT22;11591;44.792;10.358;2022-12-29T11:48:39;10.20;99.90
22850;DHT22;11591;44.792;10.358;2022-12-29T11:51:06;10.20;99.90
22850;DHT22;11591;44.792;10.358;2022-12-29T11:53:51;10.30;99.90
22850;DHT22;11591;44.792;10.358;2022-12-29T11:56:22;10.30;99.90
22850;DHT22;11591;44.792;10.358;2022-12-29T11:58:56;10.30;99.90
22850;DHT22;11591;44.792;10.358;2022-12-29T12:01:40;10.30;99.90
22850;DHT22;11591;44.792;10.358;2022-12-29T12:04:16;10.30;99.90
22850;DHT22;11591;44.792;10.358;2022-12-29T12:09:53;10.30;99.90
22850;DHT22;11591;44.792;10.358;2022-12-29T12:12:28;10.40;99.90
22850;DHT22;11591;44.792;10.358;2022-12-29T12:14:58;10.30;99.90
22850;DHT22;11591;44.792;10.358;2022-12-29T12:17:54;10.30;99.90
22850;DHT22;11591;44.792;10.358;2022-12-29T12:20:22;10.30;99.90
22850;DHT22;11591;44.792;10.358;2022-12-29T12:25:59;10.30;99.90
22850;DHT22;11591;44.792;10.358;2022-12-29T12:29:07;10.20;99.90
22850;DHT22;11591;44.792;10.358;2022-12-29T12:32:00;10.10;99.90
22850;DHT22;11591;44.792;10.358;2022-12-29T12:34:32;10.10;99.90
22850;DHT22;11591;44.792;10.358;2022-12-29T12:37:21;10.20;99.90
22850;DHT22;11591;44.792;10.358;2022-12-29T12:40:11;10.20;99.90
22850;DHT22;11591;44.792;10.358;2022-12-29T12:48:11;10.20;99.90
22850;DHT22;11591;44.792;10.358;2022-12-29T12:51:00;10.30;99.90
22850;DHT22;11591;44.792;10.358;2022-12-29T12:59:20;10.10;99.90
22850;DHT22;11591;44.792;10.358;2022-12-29T13:07:59;10.20;99.90
22850;DHT22;11591;44.792;10.358;2022-12-29T13:13:23;10.10;99.90
22850;DHT22;11591;44.792;10.358;2022-12-29T13:25:16;9.80;99.90
22850;DHT22;11591;44.792;10.358;2022-12-29T13:28:02;9.90;99.90
22850;DHT22;11591;44.792;10.358;2022-12-29T13:30:39;9.80;99.90
22850;DHT22;11591;44.792;10.358;2022-12-29T13:36:14;9.90;99.90
22850;DHT22;11591;44.792;10.358;2022-12-29T13:38:48;9.90;99.90
22850;DHT22;11591;44.792;10.358;2022-12-29T13:41:37;9.90;99.90
22850;DHT22;11591;44.792;10.358;2022-12-29T13:44:05;9.70;99.90
22850;DHT22;11591;44.792;10.358;2022-12-29T13:46:42;9.70;99.90
22850;DHT22;11591;44.792;10.358;2022-12-29T13:49:14;9.80;99.90
22850;DHT22;11591;44.792;10.358;2022-12-29T13:57:10;9.80;99.90
22850;DHT22;11591;44.792;10.358;2022-12-29T14:07:56;10.10;99.90
22850;DHT22;11591;44.792;10.358;2022-12-29T14:10:30;10.10;99.90
22850;DHT22;11591;44.792;10.358;2022-12-29T14:13:20;10.10;99.90
22850;DHT22;11591;44.792;10.358;2022-12-29T14:15:57;10.10;99.90
22850;DHT22;11591;44.792;10.358;2022-12-29T14:18:26;10.10;99.90
22850;DHT22;11591;44.792;10.358;2022-12-29T14:23:43;10.10;99.90
22850;DHT22;11591;44.792;10.358;2022-12-29T14:26:11;10.10;99.90
22850;DHT22;11591;44.792;10.358;2022-12-29T14:28:39;10.10;99.90
22850;DHT22;11591;44.792;10.358;2022-12-29T14:33:41;10.10;99.90
22850;DHT22;11591;44.792;10.358;2022-12-29T14:38:59;10.10;99.90
22850;DHT22;11591;44.792;10.358;2022-12-29T14:49:29;10.20;99.90
22850;DHT22;11591;44.792;10.358;2022-12-29T14:52:19;10.10;99.90
22850;DHT22;11591;44.792;10.358;2022-12-29T14:54:57;10.20;99.90
22850;DHT22;11591;44.792;10.358;2022-12-29T14:57:40;10.20;99.90
22850;DHT22;11591;44.792;10.358;2022-12-29T15:00:35;10.20;99.90
22850;DHT22;11591;44.792;10.358;2022-12-29T15:03:29;10.10;99.90
22850;DHT22;11591;44.792;10.358;2022-12-29T15:06:10;10.10;99.90
22850;DHT22;11591;44.792;10.358;2022-12-29T15:11:17;10.10;99.90
22850;DHT22;11591;44.792;10.358;2022-12-29T15:13:44;10.10;99.90
22850;DHT22;11591;44.792;10.358;2022-12-29T15:16:30;10.10;99.90
22850;DHT22;11591;44.792;10.358;2022-12-29T15:18:58;10.10;99.90
22850;DHT22;11591;44.792;10.358;2022-12-29T15:21:32;10.00;99.90
22850;DHT22;11591;44.792;10.358;2022-12-29T15:23:59;10.00;99.90
22850;DHT22;11591;44.792;10.358;2022-12-29T15:26:39;10.00;99.90
22850;DHT22;11591;44.792;10.358;2022-12-29T15:29:38;10.00;99.90
22850;DHT22;11591;44.792;10.358;2022-12-29T15:32:25;10.00;99.90
22850;DHT22;11591;44.792;10.358;2022-12-29T15:34:53;10.00;99.90
22850;DHT22;11591;44.792;10.358;2022-12-29T15:37:40;10.00;99.90
22850;DHT22;11591;44.792;10.358;2022-12-29T15:40:25;10.00;99.90
22850;DHT22;11591;44.792;10.358;2022-12-29T15:43:08;10.00;99.90
22850;DHT22;11591;44.792;10.358;2022-12-29T15:45:36;10.00;99.90
22850;DHT22;11591;44.792;10.358;2022-12-29T15:48:04;10.00;99.90
22850;DHT22;11591;44.792;10.358;2022-12-29T15:50:32;10.00;99.90
22850;DHT22;11591;44.792;10.358;2022-12-29T15:52:59;10.00;99.90
22850;DHT22;11591;44.792;10.358;2022-12-29T15:55:34;10.00;99.90
22850;DHT22;11591;44.792;10.358;2022-12-29T15:58:03;10.00;99.90
22850;DHT22;11591;44.792;10.358;2022-12-29T16:00:35;10.00;99.90
22850;DHT22;11591;44.792;10.358;2022-12-29T16:03:05;10.00;99.90
22850;DHT22;11591;44.792;10.358;2022-12-29T16:05:36;10.00;99.90
22850;DHT22;11591;44.792;10.358;2022-12-29T16:08:03;10.00;99.90
22850;DHT22;11591;44.792;10.358;2022-12-29T16:10:37;10.00;99.90
22850;DHT22;11591;44.792;10.358;2022-12-29T16:13:20;10.00;99.90
22850;DHT22;11591;44.792;10.358;2022-12-29T16:15:51;10.00;99.90
22850;DHT22;11591;44.792;10.358;2022-12-29T16:18:25;10.00;99.90
22850;DHT22;11591;44.792;10.358;2022-12-29T16:20:53;10.00;99.90
22850;DHT22;11591;44.792;10.358;2022-12-29T16:23:25;9.90;99.90
22850;DHT22;11591;44.792;10.358;2022-12-29T16:25:52;9.90;99.90
22850;DHT22;11591;44.792;10.358;2022-12-29T16:28:22;10.00;99.90
22850;DHT22;11591;44.792;10.358;2022-12-29T16:31:02;10.00;99.90
22850;DHT22;11591;44.792;10.358;2022-12-29T16:33:48;9.90;99.90
22850;DHT22;11591;44.792;10.358;2022-12-29T16:36:33;9.90;99.90
22850;DHT22;11591;44.792;10.358;2022-12-29T16:39:30;9.90;99.90
22850;DHT22;11591;44.792;10.358;2022-12-29T16:41:57;10.00;99.90
22850;DHT22;11591;44.792;10.358;2022-12-29T16:49:38;10.00;99.90
22850;DHT22;11591;44.792;10.358;2022-12-29T16:54:51;10.00;99.90
22850;DHT22;11591;44.792;10.358;2022-12-29T16:57:22;10.00;99.90
22850;DHT22;11591;44.792;10.358;2022-12-29T16:59:51;10.00;99.90
22850;DHT22;11591;44.792;10.358;2022-12-29T17:02:20;10.00;99.90
22850;DHT22;11591;44.792;10.358;2022-12-29T17:04:48;10.00;99.90
22850;DHT22;11591;44.792;10.358;2022-12-29T17:07:18;9.90;99.90
22850;DHT22;11591;44.792;10.358;2022-12-29T17:09:44;9.90;99.90
22850;DHT22;11591;44.792;10.358;2022-12-29T17:12:15;9.90;99.90
22850;DHT22;11591;44.792;10.358;2022-12-29T17:17:46;9.90;99.90
22850;DHT22;11591;44.792;10.358;2022-12-29T17:22:42;9.90;99.90
22850;DHT22;11591;44.792;10.358;2022-12-29T17:25:12;9.90;99.90
22850;DHT22;11591;44.792;10.358;2022-12-29T17:27:58;9.90;99.90
22850;DHT22;11591;44.792;10.358;2022-12-29T17:30:25;9.80;99.90
22850;DHT22;11591;44.792;10.358;2022-12-29T17:32:55;9.70;99.90
22850;DHT22;11591;44.792;10.358;2022-12-29T17:35:22;9.70;99.90
22850;DHT22;11591;44.792;10.358;2022-12-29T17:37:49;9.70;99.90
22850;DHT22;11591;44.792;10.358;2022-12-29T17:40:16;9.60;99.90
22850;DHT22;11591;44.792;10.358;2022-12-29T17:42:44;9.60;99.90
22850;DHT22;11591;44.792;10.358;2022-12-29T17:45:22;9.70;99.90
22850;DHT22;11591;44.792;10.358;2022-12-29T17:47:48;9.70;99.90
22850;DHT22;11591;44.792;10.358;2022-12-29T17:50:17;9.70;99.90
22850;DHT22;11591;44.792;10.358;2022-12-29T17:52:47;9.80;99.90
22850;DHT22;11591;44.792;10.358;2022-12-29T17:55:19;9.80;99.90
22850;DHT22;11591;44.792;10.358;2022-12-29T17:57:46;9.70;99.90
22850;DHT22;11591;44.792;10.358;2022-12-29T18:00:22;9.70;99.90
22850;DHT22;11591;44.792;10.358;2022-12-29T18:02:48;9.60;99.90
22850;DHT22;11591;44.792;10.358;2022-12-29T18:07:42;9.60;99.90
22850;DHT22;11591;44.792;10.358;2022-12-29T18:10:08;9.60;99.90
22850;DHT22;11591;44.792;10.358;2022-12-29T18:12:39;9.60;99.90
22850;DHT22;11591;44.792;10.358;2022-12-29T18:15:09;9.60;99.90
22850;DHT22;11591;44.792;10.358;2022-12-29T18:17:40;9.50;99.90
22850;DHT22;11591;44.792;10.358;2022-12-29T18:20:08;9.50;99.90
22850;DHT22;11591;44.792;10.358;2022-12-29T18:22:33;9.50;99.90
22850;DHT22;11591;44.792;10.358;2022-12-29T18:24:59;9.50;99.90
22850;DHT22;11591;44.792;10.358;2022-12-29T18:27:26;9.50;99.90
22850;DHT22;11591;44.792;10.358;2022-12-29T18:29:52;9.50;99.90